createdAt,value
2023-02-18T00:01:41.868Z,10.90
2023-02-18T00:04:47.510Z,10.90
2023-02-18T00:07:53.555Z,10.90
2023-02-18T00:10:59.766Z,10.90
2023-02-18T00:14:07.832Z,10.90
2023-02-18T00:17:15.216Z,10.90
2023-02-18T00:20:21.103Z,10.90
2023-02-18T00:23:27.113Z,10.90
2023-02-18T00:26:33.434Z,10.90
2023-02-18T00:29:39.177Z,10.90
2023-02-18T00:32:46.406Z,10.90
2023-02-18T00:35:52.331Z,10.90
2023-02-18T00:39:00.427Z,10.80
2023-02-18T00:42:06.598Z,10.80
2023-02-18T00:45:12.195Z,10.80
2023-02-18T00:48:19.408Z,10.80
2023-02-18T00:51:26.366Z,10.80
2023-02-18T00:54:32.283Z,10.80
2023-02-18T00:57:38.208Z,10.70
2023-02-18T01:00:44.437Z,10.70
2023-02-18T01:03:51.906Z,10.70
2023-02-18T01:06:57.636Z,10.70
2023-02-18T01:10:03.718Z,10.70
2023-02-18T01:13:12.047Z,10.70
2023-02-18T01:16:18.295Z,10.70
2023-02-18T01:19:25.736Z,10.70
2023-02-18T01:22:31.745Z,10.70
2023-02-18T01:25:38.472Z,10.80
2023-02-18T01:28:45.589Z,10.70
2023-02-18T01:31:52.454Z,10.70
2023-02-18T01:35:01.659Z,10.70
2023-02-18T01:38:08.634Z,10.70
2023-02-18T01:41:14.602Z,10.70
2023-02-18T01:44:23.113Z,10.70
2023-02-18T01:47:28.916Z,10.70
2023-02-18T01:50:39.972Z,10.70
2023-02-18T01:53:55.675Z,10.60
2023-02-18T01:57:04.433Z,10.60
2023-02-18T02:00:13.239Z,10.60
2023-02-18T02:03:19.171Z,10.60
2023-02-18T02:06:26.742Z,10.60
2023-02-18T02:09:34.341Z,10.50
2023-02-18T02:12:51.670Z,10.50
2023-02-18T02:16:04.532Z,10.60
2023-02-18T02:19:37.724Z,10.50
2023-02-18T02:23:37.593Z,10.50
2023-02-18T02:27:09.449Z,10.50
2023-02-18T02:30:48.376Z,10.50
2023-02-18T02:34:34.763Z,10.50
2023-02-18T02:37:48.104Z,10.50
2023-02-18T02:41:01.127Z,10.50
2023-02-18T02:44:15.737Z,10.50
2023-02-18T02:47:28.567Z,10.50
2023-02-18T02:50:41.907Z,10.50
2023-02-18T02:53:47.574Z,10.50
2023-02-18T02:57:07.177Z,10.50
2023-02-18T03:00:15.614Z,10.40
2023-02-18T03:03:38.014Z,10.40
2023-02-18T03:07:03.162Z,10.40
2023-02-18T03:10:27.118Z,10.40
2023-02-18T03:13:51.338Z,10.30
2023-02-18T03:17:03.914Z,10.40
2023-02-18T03:20:17.577Z,10.30
2023-02-18T03:23:29.163Z,10.30
2023-02-18T03:26:38.393Z,10.30
2023-02-18T03:29:49.249Z,10.30
2023-02-18T03:32:58.732Z,10.30
2023-02-18T03:36:05.142Z,10.30
2023-02-18T03:39:16.224Z,10.20
2023-02-18T03:42:27.116Z,10.20
2023-02-18T03:45:33.365Z,10.20
2023-02-18T03:48:39.415Z,10.20
2023-02-18T03:51:45.919Z,10.20
2023-02-18T03:54:53.116Z,10.20
2023-02-18T03:57:59.073Z,10.20
2023-02-18T04:01:05.513Z,10.20
2023-02-18T04:04:11.710Z,10.20
2023-02-18T04:07:17.478Z,10.20
2023-02-18T04:10:24.493Z,10.20
2023-02-18T04:13:30.214Z,10.20
2023-02-18T04:16:35.942Z,10.20
2023-02-18T04:19:42.122Z,10.20
2023-02-18T04:22:48.040Z,10.20
2023-02-18T04:25:55.083Z,10.20
2023-02-18T04:29:00.929Z,10.20
2023-02-18T04:32:07.031Z,10.20
2023-02-18T04:35:13.062Z,10.20
2023-02-18T04:38:19.150Z,10.20
2023-02-18T04:41:26.050Z,10.20
2023-02-18T04:44:31.602Z,10.20
2023-02-18T04:47:37.436Z,10.20
2023-02-18T04:50:43.200Z,10.20
2023-02-18T04:53:48.876Z,10.10
2023-02-18T04:56:55.906Z,10.10
2023-02-18T05:00:01.502Z,10.10
2023-02-18T05:03:07.313Z,10.10
2023-02-18T05:06:13.349Z,10.10
2023-02-18T05:09:19.512Z,10.10
2023-02-18T05:12:26.891Z,10.10
2023-02-18T05:15:33.092Z,10.10
2023-02-18T05:18:38.776Z,10.00
2023-02-18T05:21:45.146Z,10.00
2023-02-18T05:24:50.889Z,9.90
2023-02-18T05:27:57.935Z,10.00
2023-02-18T05:31:03.638Z,10.00
2023-02-18T05:34:09.522Z,10.00
2023-02-18T05:37:15.289Z,10.00
2023-02-18T05:40:21.598Z,10.00
2023-02-18T05:43:28.484Z,10.00
2023-02-18T05:46:34.566Z,10.00
2023-02-18T05:49:41.513Z,10.00
2023-02-18T05:52:47.155Z,10.00
2023-02-18T05:55:53.173Z,10.10
2023-02-18T05:59:00.182Z,10.10
2023-02-18T06:02:05.775Z,10.10
2023-02-18T06:05:12.024Z,10.10
2023-02-18T06:08:17.449Z,10.10
2023-02-18T06:11:23.353Z,10.10
2023-02-18T06:14:30.600Z,10.10
2023-02-18T06:17:36.363Z,10.10
2023-02-18T06:20:42.397Z,10.10
2023-02-18T06:23:48.572Z,10.10
2023-02-18T06:26:54.498Z,10.10
2023-02-18T06:30:01.591Z,10.10
2023-02-18T06:33:07.767Z,10.10
2023-02-18T06:36:14.829Z,10.10
2023-02-18T06:39:20.840Z,10.10
2023-02-18T06:42:26.631Z,10.10
2023-02-18T06:45:33.618Z,10.10
2023-02-18T06:48:39.568Z,10.10
2023-02-18T06:51:45.362Z,10.20
2023-02-18T06:54:51.098Z,10.20
2023-02-18T06:57:57.167Z,10.20
2023-02-18T07:01:04.627Z,10.20
2023-02-18T07:04:10.899Z,10.20
2023-02-18T07:07:16.893Z,10.20
2023-02-18T07:10:23.166Z,10.30
2023-02-18T07:13:28.917Z,10.30
2023-02-18T07:16:36.191Z,10.30
2023-02-18T07:19:42.233Z,10.30
2023-02-18T07:22:48.190Z,10.30
2023-02-18T07:25:53.849Z,10.30
2023-02-18T07:28:59.926Z,10.30
2023-02-18T07:32:07.373Z,10.30
2023-02-18T07:35:15.826Z,10.40
2023-02-18T07:38:21.742Z,10.40
2023-02-18T07:41:27.674Z,10.40
2023-02-18T07:44:33.587Z,10.40
2023-02-18T07:47:41.845Z,10.40
2023-02-18T07:50:48.042Z,10.40
2023-02-18T07:53:54.241Z,10.50
2023-02-18T07:56:59.992Z,10.50
2023-02-18T08:00:06.343Z,10.50
2023-02-18T08:03:13.584Z,10.50
2023-02-18T08:06:23.763Z,10.60
2023-02-18T08:09:29.748Z,10.60
2023-02-18T08:12:35.238Z,10.60
2023-02-18T08:15:41.488Z,10.70
2023-02-18T08:18:49.888Z,10.70
2023-02-18T08:21:55.911Z,10.80
2023-02-18T08:25:02.128Z,10.80
2023-02-18T08:28:08.178Z,10.80
2023-02-18T08:31:20.251Z,10.80
2023-02-18T08:34:27.646Z,10.90
2023-02-18T08:37:52.751Z,10.90
2023-02-18T08:41:03.936Z,10.80
2023-02-18T08:44:09.545Z,10.80
2023-02-18T08:48:17.979Z,10.80
2023-02-18T08:50:42.714Z,10.80
2023-02-18T08:53:49.007Z,11.00
2023-02-18T08:56:57.886Z,11.00
2023-02-18T09:00:03.861Z,11.10
2023-02-18T09:03:09.688Z,11.20
2023-02-18T09:06:16.668Z,11.20
2023-02-18T09:09:22.612Z,11.20
2023-02-18T09:12:29.506Z,11.20
2023-02-18T09:15:35.322Z,11.10
2023-02-18T09:18:41.182Z,11.10
2023-02-18T09:21:48.229Z,11.20
2023-02-18T09:24:53.846Z,11.20
2023-02-18T09:27:59.739Z,11.30
2023-02-18T09:31:07.831Z,11.40
2023-02-18T09:34:14.032Z,11.40
2023-02-18T09:37:21.280Z,11.50
2023-02-18T09:40:30.639Z,11.50
2023-02-18T09:43:39.396Z,11.50
2023-02-18T09:46:51.537Z,11.60
2023-02-18T09:50:01.369Z,11.50
2023-02-18T09:53:08.469Z,11.60
2023-02-18T09:56:17.131Z,11.60
2023-02-18T09:59:26.024Z,11.70
2023-02-18T10:02:32.986Z,11.70
2023-02-18T10:05:44.086Z,11.70
2023-02-18T10:08:53.471Z,11.70
2023-02-18T10:12:03.913Z,11.60
2023-02-18T10:15:21.541Z,11.60
2023-02-18T10:21:41.300Z,11.70
2023-02-18T10:24:52.393Z,11.70
2023-02-18T10:28:00.025Z,11.70
2023-02-18T10:31:11.502Z,11.70
2023-02-18T10:34:25.319Z,11.60
2023-02-18T10:37:46.721Z,11.60
2023-02-18T10:41:00.810Z,11.60
2023-02-18T10:44:14.674Z,11.70
2023-02-18T10:47:32.223Z,11.70
2023-02-18T10:50:41.319Z,11.70
2023-02-18T10:53:49.439Z,11.80
2023-02-18T10:57:02.426Z,11.70
2023-02-18T11:00:19.336Z,11.80
2023-02-18T11:03:26.249Z,11.80
2023-02-18T11:06:35.576Z,11.80
2023-02-18T11:09:46.799Z,11.80
2023-02-18T11:12:58.554Z,11.90
2023-02-18T11:16:07.341Z,11.90
2023-02-18T11:19:34.799Z,12.00
2023-02-18T11:22:41.797Z,12.10
2023-02-18T11:25:58.560Z,12.20
2023-02-18T11:29:10.378Z,12.20
2023-02-18T11:32:17.277Z,12.30
2023-02-18T11:35:26.173Z,12.30
2023-02-18T11:38:38.348Z,12.40
2023-02-18T11:41:47.957Z,12.50
2023-02-18T11:44:58.171Z,12.50
2023-02-18T11:48:10.214Z,12.50
2023-02-18T11:51:21.685Z,12.50
2023-02-18T11:54:30.160Z,12.50
2023-02-18T11:57:38.508Z,12.50
2023-02-18T12:00:47.546Z,12.50
2023-02-18T12:03:58.079Z,12.60
2023-02-18T12:07:16.656Z,12.50
2023-02-18T12:10:27.997Z,12.50
2023-02-18T12:13:37.982Z,12.50
2023-02-18T12:16:57.554Z,12.50
2023-02-18T12:20:24.587Z,12.40
2023-02-18T12:23:37.974Z,12.50
2023-02-18T12:26:55.438Z,12.50
2023-02-18T12:30:30.479Z,12.50
2023-02-18T12:33:50.104Z,12.40
2023-02-18T12:37:06.340Z,12.40
2023-02-18T12:40:34.985Z,12.40
2023-02-18T12:43:55.230Z,12.30
2023-02-18T12:47:29.566Z,12.30
2023-02-18T12:51:12.456Z,12.20
2023-02-18T12:54:39.192Z,12.10
2023-02-18T12:57:52.198Z,12.00
2023-02-18T13:01:10.683Z,12.00
2023-02-18T13:04:36.715Z,11.90
2023-02-18T13:08:00.051Z,12.00
2023-02-18T13:11:20.496Z,11.90
2023-02-18T13:14:33.752Z,11.90
2023-02-18T13:17:43.636Z,11.80
2023-02-18T13:20:53.543Z,11.70
2023-02-18T13:24:05.633Z,11.60
2023-02-18T13:27:23.271Z,11.50
2023-02-18T13:30:34.286Z,11.50
2023-02-18T13:33:49.328Z,11.50
2023-02-18T13:37:08.719Z,11.50
2023-02-18T13:40:21.371Z,11.50
2023-02-18T13:43:32.926Z,11.50
2023-02-18T13:46:50.537Z,11.50
2023-02-18T13:49:56.804Z,11.50
2023-02-18T13:53:25.701Z,11.50
2023-02-18T13:56:35.445Z,11.60
2023-02-18T13:59:45.617Z,11.60
2023-02-18T14:02:58.842Z,11.60
2023-02-18T14:06:15.332Z,11.60
2023-02-18T14:09:39.809Z,11.50
2023-02-18T14:13:23.932Z,11.50
2023-02-18T14:17:08.445Z,11.50
2023-02-18T14:20:45.184Z,11.50
2023-02-18T14:24:02.158Z,11.50
2023-02-18T14:27:17.455Z,11.50
2023-02-18T14:30:35.054Z,11.40
2023-02-18T14:33:44.352Z,11.40
2023-02-18T14:36:58.540Z,11.40
2023-02-18T14:40:20.678Z,11.40
2023-02-18T14:43:48.289Z,11.40
2023-02-18T14:47:11.571Z,11.50
2023-02-18T14:50:21.517Z,11.50
2023-02-18T14:53:28.655Z,11.50
2023-02-18T14:56:39.834Z,11.50
2023-02-18T14:59:47.575Z,11.50
2023-02-18T15:02:56.759Z,11.50
2023-02-18T15:06:02.688Z,11.60
2023-02-18T15:09:16.086Z,11.60
2023-02-18T15:12:25.770Z,11.50
2023-02-18T15:15:35.326Z,11.60
2023-02-18T15:18:47.517Z,11.60
2023-02-18T15:21:57.236Z,11.50
2023-02-18T15:25:04.096Z,11.50
2023-02-18T15:28:23.948Z,11.50
2023-02-18T15:31:31.869Z,11.50
2023-02-18T15:34:40.821Z,11.50
2023-02-18T15:37:48.261Z,11.50
2023-02-18T15:40:56.076Z,11.50
2023-02-18T15:44:05.457Z,11.50
2023-02-18T15:47:11.619Z,11.50
2023-02-18T15:50:22.545Z,11.50
2023-02-18T15:53:28.319Z,11.40
2023-02-18T15:56:38.024Z,11.40
2023-02-18T15:59:54.755Z,11.40
2023-02-18T16:03:13.878Z,11.40
2023-02-18T16:06:24.178Z,11.40
2023-02-18T16:09:34.048Z,11.40
2023-02-18T16:12:41.328Z,11.30
2023-02-18T16:15:49.542Z,11.30
2023-02-18T16:18:55.548Z,11.30
2023-02-18T16:22:06.658Z,11.30
2023-02-18T16:25:18.546Z,11.30
2023-02-18T16:28:28.037Z,11.20
2023-02-18T16:31:34.376Z,11.20
2023-02-18T16:34:40.320Z,11.20
2023-02-18T16:37:50.213Z,11.20
2023-02-18T16:40:56.257Z,11.20
2023-02-18T16:44:02.271Z,11.10
2023-02-18T16:47:09.319Z,11.10
2023-02-18T16:50:19.349Z,11.10
2023-02-18T16:53:26.738Z,11.10
2023-02-18T16:56:35.507Z,11.10
2023-02-18T16:59:41.065Z,11.00
2023-02-18T17:02:49.467Z,11.10
2023-02-18T17:05:55.040Z,11.10
2023-02-18T17:09:02.879Z,11.10
2023-02-18T17:12:08.556Z,11.10
2023-02-18T17:15:27.824Z,11.00
2023-02-18T17:18:33.490Z,11.00
2023-02-18T17:21:39.710Z,11.00
2023-02-18T17:24:46.688Z,11.00
2023-02-18T17:27:53.276Z,11.00
2023-02-18T17:30:59.785Z,11.00
2023-02-18T17:34:09.346Z,10.90
2023-02-18T17:37:15.607Z,10.90
2023-02-18T17:40:26.802Z,10.90
2023-02-18T17:43:32.276Z,10.90
2023-02-18T17:46:38.521Z,10.90
2023-02-18T17:49:44.753Z,10.90
2023-02-18T17:52:51.124Z,10.90
2023-02-18T17:55:58.233Z,10.90
2023-02-18T17:59:04.394Z,10.90
2023-02-18T18:02:25.700Z,10.90
2023-02-18T18:05:34.317Z,10.90
2023-02-18T18:08:40.533Z,10.90
2023-02-18T18:11:47.513Z,10.90
2023-02-18T18:14:52.994Z,10.90
2023-02-18T18:17:59.620Z,10.90
2023-02-18T18:21:06.343Z,10.90
2023-02-18T18:24:13.526Z,10.90
2023-02-18T18:27:20.629Z,10.90
2023-02-18T18:30:28.570Z,10.90
2023-02-18T18:33:35.368Z,10.90
2023-02-18T18:36:41.317Z,10.90
2023-02-18T18:39:47.384Z,10.90
2023-02-18T18:42:55.775Z,10.90
2023-02-18T18:46:01.815Z,10.90
2023-02-18T18:49:08.284Z,10.90
2023-02-18T18:52:17.841Z,10.90
2023-02-18T18:55:28.420Z,10.90
2023-02-18T18:58:35.950Z,10.90
2023-02-18T19:01:41.792Z,10.90
2023-02-18T19:04:47.561Z,10.90
2023-02-18T19:07:53.602Z,10.90
2023-02-18T19:10:59.458Z,10.90
2023-02-18T19:14:06.555Z,10.80
2023-02-18T19:17:12.473Z,10.80
2023-02-18T19:20:21.378Z,10.80
2023-02-18T19:23:27.193Z,10.80
2023-02-18T19:26:32.884Z,10.80
2023-02-18T19:29:40.596Z,10.70
2023-02-18T19:32:46.925Z,10.70
2023-02-18T19:35:52.468Z,10.70
2023-02-18T19:38:58.984Z,10.80
2023-02-18T19:42:04.906Z,10.70
2023-02-18T19:45:12.655Z,10.70
2023-02-18T19:48:20.863Z,10.60
2023-02-18T19:51:26.926Z,10.60
2023-02-18T19:54:33.201Z,10.60
2023-02-18T19:57:39.252Z,10.70
2023-02-18T20:00:46.622Z,10.70
2023-02-18T20:03:53.665Z,10.70
2023-02-18T20:06:59.670Z,10.80
2023-02-18T20:10:06.219Z,10.80
2023-02-18T20:13:12.271Z,10.80
2023-02-18T20:16:20.194Z,10.80
2023-02-18T20:19:27.057Z,10.80
2023-02-18T20:22:32.930Z,10.80
2023-02-18T20:25:40.306Z,10.80
2023-02-18T20:28:46.158Z,10.80
2023-02-18T20:31:53.393Z,10.80
2023-02-18T20:35:00.241Z,10.80
2023-02-18T20:38:06.312Z,10.80
2023-02-18T20:41:14.547Z,10.80
2023-02-18T20:44:22.038Z,10.80
2023-02-18T20:47:29.432Z,10.80
2023-02-18T20:50:35.185Z,10.80
2023-02-18T20:53:46.836Z,10.80
2023-02-18T20:56:53.475Z,10.80
2023-02-18T20:59:59.139Z,10.80
2023-02-18T21:03:06.279Z,10.80
2023-02-18T21:06:15.321Z,10.80
2023-02-18T21:09:21.409Z,10.90
2023-02-18T21:12:27.209Z,10.80
2023-02-18T21:15:35.050Z,10.90
2023-02-18T21:18:42.183Z,10.90
2023-02-18T21:21:48.368Z,10.90
2023-02-18T21:24:54.228Z,10.90
2023-02-18T21:28:00.654Z,10.80
2023-02-18T21:31:06.935Z,10.80
2023-02-18T21:34:15.711Z,10.90
2023-02-18T21:37:21.654Z,10.80
2023-02-18T21:40:27.871Z,10.90
2023-02-18T21:43:34.171Z,10.90
2023-02-18T21:46:41.094Z,10.90
2023-02-18T21:49:49.056Z,10.90
2023-02-18T21:52:54.868Z,10.90
2023-02-18T21:56:10.522Z,10.90
2023-02-18T21:59:16.714Z,10.90
2023-02-18T22:02:24.657Z,10.90
2023-02-18T22:05:31.866Z,10.90
2023-02-18T22:08:37.896Z,10.90
2023-02-18T22:11:44.177Z,10.90
2023-02-18T22:14:49.969Z,10.90
2023-02-18T22:17:55.446Z,10.90
2023-02-18T22:21:07.275Z,10.80
2023-02-18T22:24:14.493Z,10.80
2023-02-18T22:27:20.573Z,10.80
2023-02-18T22:30:26.341Z,10.80
2023-02-18T22:33:32.310Z,10.80
2023-02-18T22:36:39.681Z,10.80
2023-02-18T22:39:45.645Z,10.80
2023-02-18T22:42:51.309Z,10.80
2023-02-18T22:45:57.124Z,10.80
2023-02-18T22:49:04.302Z,10.80
2023-02-18T22:52:11.495Z,10.80
2023-02-18T22:55:17.154Z,10.70
2023-02-18T22:58:23.116Z,10.70
2023-02-18T23:01:30.540Z,10.70
2023-02-18T23:04:36.815Z,10.60
2023-02-18T23:07:44.058Z,10.60
2023-02-18T23:11:00.048Z,10.60
2023-02-18T23:14:21.659Z,10.60
2023-02-18T23:17:27.734Z,10.60
2023-02-18T23:20:51.096Z,10.60
2023-02-18T23:23:58.200Z,10.60
2023-02-18T23:27:04.733Z,10.50
2023-02-18T23:30:12.193Z,10.50
2023-02-18T23:33:17.921Z,10.50
2023-02-18T23:36:25.814Z,10.50
2023-02-18T23:39:32.563Z,10.50
2023-02-18T23:42:38.146Z,10.40
2023-02-18T23:45:44.470Z,10.40
2023-02-18T23:48:53.167Z,10.50
2023-02-18T23:51:59.071Z,10.40
2023-02-18T23:55:07.187Z,10.50
2023-02-18T23:58:13.177Z,10.50
